Time;durP1;ratioP1;P1;durP2;ratioP2;P2;SDS_P1;SDS_P2;PMS_P1;PMS_P2;Temp;Humidity;BMP_temperature;BMP_pressure;BME280_temperature;BME280_humidity;BME280_pressure;Samples;Min_cycle;Max_cycle;Signal;HPM_P1;HPM_P2
2023/01/30 00:00:24;;;;;;;;;5.75;4.75;;;;;21.09;41.52;102466.97;5056059;28;45316;-69
2023/01/30 00:02:49;;;;;;;;;4.00;4.00;;;;;21.06;41.43;102459.31;5055892;28;45435;-70
2023/01/30 00:05:15;;;;;;;;;5.50;5.50;;;;;21.03;41.34;102443.69;5037613;28;48352;-70
2023/01/30 00:07:40;;;;;;;;;4.00;4.00;;;;;21.06;41.35;102446.91;5055467;28;45262;-69
2023/01/30 00:10:06;;;;;;;;;6.25;5.75;;;;;21.06;40.89;102438.97;5055865;28;45406;-67
2023/01/30 00:12:31;;;;;;;;;6.00;4.00;;;;;21.03;41.33;102433.94;5055720;28;45421;-69
2023/01/30 00:14:56;;;;;;;;;6.00;5.75;;;;;20.94;41.17;102430.28;5055519;28;46255;-69
2023/01/30 00:17:22;;;;;;;;;5.50;5.50;;;;;21.08;41.38;102438.00;5055697;28;45363;-70
2023/01/30 00:19:47;;;;;;;;;4.00;4.00;;;;;21.07;41.11;102439.81;5055889;28;45364;-69
2023/01/30 00:22:12;;;;;;;;;5.25;4.00;;;;;21.03;41.06;102433.09;5055337;28;45313;-69
2023/01/30 00:24:38;;;;;;;;;6.75;5.00;;;;;21.06;41.24;102438.13;5055381;28;46970;-69
2023/01/30 00:27:03;;;;;;;;;4.50;4.25;;;;;21.06;41.28;102432.84;5055456;28;45346;-69
2023/01/30 00:29:28;;;;;;;;;5.25;4.00;;;;;21.06;41.11;102423.09;5055604;28;45321;-69
2023/01/30 00:31:54;;;;;;;;;7.00;5.75;;;;;21.06;41.02;102409.88;5055659;28;45257;-69
2023/01/30 00:34:19;;;;;;;;;3.50;3.50;;;;;21.07;41.25;102421.28;5055250;28;47286;-69
2023/01/30 00:36:44;;;;;;;;;6.25;4.00;;;;;21.05;41.19;102418.75;5055116;28;45300;-69
2023/01/30 00:39:09;;;;;;;;;6.50;6.00;;;;;21.06;41.16;102409.03;5055570;28;45238;-70
2023/01/30 00:47:07;;;;;;;;;5.00;5.00;;;;;21.06;41.06;102403.72;5058031;28;45269;-70
2023/01/30 00:49:33;;;;;;;;;5.00;4.00;;;;;21.02;41.01;102392.59;5059067;28;45413;-70
2023/01/30 00:51:59;;;;;;;;;5.50;5.50;;;;;21.04;40.90;102395.09;5058477;28;45343;-70
2023/01/30 00:54:24;;;;;;;;;6.00;4.75;;;;;21.05;41.07;102397.59;5058603;28;46254;-70
2023/01/30 00:56:49;;;;;;;;;8.00;6.00;;;;;21.05;40.95;102397.59;5058821;28;46135;-69
2023/01/30 00:59:15;;;;;;;;;5.00;4.00;;;;;21.05;41.06;102383.53;5058770;28;45363;-69
2023/01/30 01:01:40;;;;;;;;;6.00;6.00;;;;;21.05;41.14;102387.00;5058818;28;45420;-70
2023/01/30 01:04:07;;;;;;;;;6.75;6.75;;;;;21.06;40.87;102396.63;5058372;28;45953;-69
2023/01/30 01:06:33;;;;;;;;;5.00;5.00;;;;;21.00;40.90;102375.97;5058272;28;45395;-69
2023/01/30 01:08:58;;;;;;;;;8.25;5.25;;;;;21.03;40.85;102381.03;5058564;28;45306;-70
2023/01/30 01:11:23;;;;;;;;;6.00;6.00;;;;;21.05;41.25;102388.84;5058665;28;45331;-69
2023/01/30 01:13:54;;;;;;;;;5.75;3.75;;;;;21.04;41.35;102373.91;5040411;28;46914;-69
2023/01/30 01:16:20;;;;;;;;;10.25;5.00;;;;;21.04;41.02;102368.63;5058554;28;45426;-69
2023/01/30 01:18:45;;;;;;;;;7.25;7.25;;;;;21.04;41.25;102374.75;5058764;28;45274;-69
2023/01/30 01:21:12;;;;;;;;;10.00;6.50;;;;;21.03;41.12;102369.59;5058129;28;45265;-69
2023/01/30 01:23:37;;;;;;;;;6.75;6.00;;;;;21.04;41.00;102374.75;5058443;28;47227;-69
2023/01/30 01:26:03;;;;;;;;;7.50;6.00;;;;;21.04;41.22;102368.63;5057942;28;45298;-69
2023/01/30 01:28:29;;;;;;;;;7.50;5.50;;;;;21.02;41.15;102358.19;5058367;28;45307;-69
2023/01/30 01:30:54;;;;;;;;;8.75;5.00;;;;;21.03;41.17;102354.56;5058398;28;45422;-69
2023/01/30 01:33:19;;;;;;;;;5.50;5.50;;;;;21.02;41.33;102342.31;5058241;28;46276;-69
2023/01/30 01:35:46;;;;;;;;;9.75;6.75;;;;;21.03;41.30;102333.38;5057459;28;45455;-69
2023/01/30 01:38:12;;;;;;;;;7.75;7.00;;;;;21.02;41.47;102331.72;5058453;28;45448;-69
2023/01/30 01:43:23;;;;;;;;;9.25;7.25;;;;;21.04;41.32;102337.72;5058083;28;45772;-69
2023/01/30 01:45:54;;;;;;;;;6.50;5.00;;;;;21.05;41.40;102330.63;5057650;28;45439;-70
2023/01/30 01:48:29;;;;;;;;;8.25;6.25;;;;;21.06;41.54;102324.34;5057535;28;45430;-69
2023/01/30 01:50:57;;;;;;;;;9.00;7.25;;;;;21.05;41.16;102320.03;5057890;28;45466;-69
2023/01/30 01:53:28;;;;;;;;;7.00;6.00;;;;;21.06;41.20;102329.63;5057735;28;46469;-69
2023/01/30 01:55:58;;;;;;;;;9.75;6.50;;;;;20.98;41.51;102314.41;5057785;28;45386;-69
2023/01/30 01:58:46;;;;;;;;;12.25;7.75;;;;;21.08;41.43;102329.50;5057214;28;45351;-69
2023/01/30 02:01:12;;;;;;;;;6.00;5.00;;;;;21.05;41.45;102322.69;5057644;28;45337;-69
2023/01/30 02:03:43;;;;;;;;;9.75;6.50;;;;;21.02;41.62;102331.72;5057143;28;46014;-70
2023/01/30 02:06:10;;;;;;;;;6.25;6.25;;;;;21.10;41.36;102348.72;5057284;28;45380;-69
2023/01/30 02:08:53;;;;;;;;;5.25;5.00;;;;;21.09;41.06;102354.97;5057945;28;45480;-69
2023/01/30 02:11:28;;;;;;;;;9.75;5.75;;;;;21.09;41.17;102353.19;5057617;28;45404;-70
2023/01/30 02:13:55;;;;;;;;;9.00;6.00;;;;;21.09;40.92;102347.88;5039356;28;46366;-69
2023/01/30 02:16:21;;;;;;;;;5.00;5.00;;;;;21.10;41.41;102351.38;5057387;28;45297;-69
2023/01/30 02:18:47;;;;;;;;;6.00;5.00;;;;;21.10;41.33;102364.59;5039096;28;45405;-69
2023/01/30 02:21:55;;;;;;;;;7.25;4.50;;;;;21.10;40.90;102369.91;5057555;28;45349;-69
2023/01/30 02:24:38;;;;;;;;;6.75;6.75;;;;;21.09;41.71;102363.75;5057306;28;46369;-70
2023/01/30 02:27:13;;;;;;;;;6.25;5.25;;;;;21.08;40.98;102361.25;5057169;28;45379;-69
2023/01/30 02:30:16;;;;;;;;;9.00;5.00;;;;;21.09;41.04;102363.75;5057341;28;45305;-70
2023/01/30 02:32:53;;;;;;;;;8.50;4.75;;;;;21.08;41.20;102361.25;5056856;28;45331;-70
2023/01/30 02:35:24;;;;;;;;;11.00;6.00;;;;;21.06;41.18;102356.94;5056990;28;45981;-69
2023/01/30 02:38:04;;;;;;;;;5.00;5.00;;;;;21.07;40.88;102357.78;5057049;28;45457;-69
2023/01/30 02:40:40;;;;;;;;;9.00;6.00;;;;;21.07;41.28;102360.41;5057434;28;45292;-69
2023/01/30 02:43:14;;;;;;;;;6.25;4.25;;;;;21.05;41.20;102354.44;5057178;28;45282;-70
2023/01/30 02:45:55;;;;;;;;;6.75;6.50;;;;;21.05;41.28;102347.31;5056420;28;46342;-70
2023/01/30 02:48:34;;;;;;;;;7.00;4.75;;;;;21.05;41.15;102347.31;5038370;28;45468;-69
2023/01/30 02:51:28;;;;;;;;;6.25;4.50;;;;;21.05;41.16;102343.84;5057342;28;45380;-69
2023/01/30 02:53:54;;;;;;;;;6.00;6.00;;;;;21.04;40.88;102356.25;5050849;28;45415;-69
2023/01/30 02:56:19;;;;;;;;;7.25;4.00;;;;;21.03;41.04;102353.72;5056568;28;46093;-70
2023/01/30 02:58:48;;;;;;;;;5.00;5.00;;;;;21.02;40.77;102344.97;5056778;28;45400;-69
2023/01/30 03:01:55;;;;;;;;;7.75;5.25;;;;;21.03;41.15;102349.25;5057163;28;45359;-69
2023/01/30 03:04:26;;;;;;;;;5.50;4.50;;;;;21.03;40.69;102346.63;4994442;28;45477;-69
2023/01/30 03:06:54;;;;;;;;;7.50;5.00;;;;;21.01;41.11;102332.69;4994229;28;46324;-70
2023/01/30 03:09:42;;;;;;;;;7.00;5.00;;;;;21.01;41.10;102340.63;4993310;28;45379;-69
2023/01/30 03:12:35;;;;;;;;;7.00;4.75;;;;;21.01;41.10;102342.41;4994603;28;45401;-69
2023/01/30 03:15:48;;;;;;;;;7.25;5.25;;;;;21.00;41.01;102348.69;4994594;28;45363;-69
2023/01/30 03:18:13;;;;;;;;;5.00;5.00;;;;;21.00;41.15;102348.69;4955199;28;46086;-69
2023/01/30 03:20:40;;;;;;;;;8.00;5.00;;;;;20.94;41.21;102340.31;4955205;28;45213;-69
2023/01/30 03:23:06;;;;;;;;;5.25;4.25;;;;;20.98;41.03;102332.94;4955396;28;45360;-69
2023/01/30 03:25:34;;;;;;;;;5.25;4.00;;;;;20.99;40.93;102329.31;4955004;28;45394;-69
2023/01/30 03:28:02;;;;;;;;;7.25;3.00;;;;;20.99;40.64;102333.78;4954985;28;46390;-70
2023/01/30 03:30:28;;;;;;;;;7.00;4.50;;;;;21.00;40.63;102324.88;4954924;28;45408;-70
2023/01/30 03:32:53;;;;;;;;;7.00;5.75;;;;;20.99;40.99;102329.31;4955343;28;46119;-69
2023/01/30 03:35:18;;;;;;;;;6.50;4.25;;;;;21.00;40.88;102324.88;4955217;28;45622;-69
2023/01/30 03:37:45;;;;;;;;;5.75;5.00;;;;;20.99;41.24;102320.53;4954971;28;46019;-70
2023/01/30 03:40:15;;;;;;;;;6.25;5.00;;;;;21.00;41.02;102317.75;4958659;28;45674;-69
2023/01/30 03:42:41;;;;;;;;;7.00;6.50;;;;;21.00;41.01;102309.81;4994086;28;45367;-69
2023/01/30 03:45:08;;;;;;;;;6.50;4.00;;;;;20.95;41.06;102304.09;4993841;28;45299;-69
2023/01/30 03:47:34;;;;;;;;;5.75;4.50;;;;;21.01;40.80;102316.81;4970465;28;47197;-69
2023/01/30 03:49:59;;;;;;;;;7.75;6.00;;;;;20.99;40.64;102317.91;4974294;28;45323;-70
2023/01/30 03:52:24;;;;;;;;;5.75;4.50;;;;;21.00;41.18;102306.34;4974438;28;45262;-70
2023/01/30 03:54:50;;;;;;;;;5.50;4.00;;;;;20.97;40.82;102286.28;5021841;28;45404;-70
2023/01/30 03:57:15;;;;;;;;;6.25;4.75;;;;;21.00;40.92;102285.19;5056057;28;46923;-69
2023/01/30 03:59:40;;;;;;;;;4.00;4.00;;;;;20.99;40.77;102289.63;5055806;28;45262;-69
2023/01/30 04:02:07;;;;;;;;;5.00;4.00;;;;;20.93;40.82;102276.94;5055912;28;45370;-69
2023/01/30 04:04:32;;;;;;;;;6.00;5.00;;;;;20.99;41.09;102286.97;5056030;28;45359;-70
2023/01/30 04:06:57;;;;;;;;;7.50;5.75;;;;;20.94;40.94;102286.56;5047161;28;45295;-69
2023/01/30 04:09:23;;;;;;;;;5.50;4.75;;;;;20.97;40.82;102294.22;5035702;28;45406;-69
2023/01/30 04:11:48;;;;;;;;;5.00;5.00;;;;;20.98;40.97;102281.81;5036030;28;45349;-69
2023/01/30 04:14:13;;;;;;;;;6.00;4.75;;;;;20.89;41.18;102272.91;5035192;28;45326;-69
2023/01/30 04:16:39;;;;;;;;;6.75;5.75;;;;;20.97;40.90;102286.28;5035540;28;45474;-69
2023/01/30 04:19:04;;;;;;;;;6.00;4.25;;;;;20.96;41.11;102282.81;5035545;28;45361;-70
2023/01/30 04:21:29;;;;;;;;;5.75;4.50;;;;;20.94;40.82;102278.63;5038047;28;45324;-69
2023/01/30 04:23:55;;;;;;;;;6.00;4.25;;;;;20.94;40.66;102281.28;5039157;28;45431;-69
2023/01/30 04:26:20;;;;;;;;;4.00;3.25;;;;;20.96;40.68;102279.31;5038929;28;46302;-70
2023/01/30 04:28:45;;;;;;;;;5.00;4.00;;;;;20.95;40.85;102286.41;5038640;28;45413;-69
2023/01/30 04:31:11;;;;;;;;;6.50;5.25;;;;;20.95;40.83;102283.75;5039114;28;45289;-69
2023/01/30 04:33:38;;;;;;;;;5.00;3.50;;;;;20.95;40.83;102285.56;5039192;28;45464;-69
2023/01/30 04:36:05;;;;;;;;;4.25;4.00;;;;;20.93;41.03;102285.72;5038775;28;46325;-69
2023/01/30 04:38:31;;;;;;;;;5.75;5.75;;;;;20.95;40.65;102298.78;5038763;28;45453;-70
2023/01/30 04:40:57;;;;;;;;;5.25;3.25;;;;;20.90;40.79;102283.34;5038942;28;45286;-69
2023/01/30 04:43:25;;;;;;;;;5.67;5.00;;;;;20.93;41.15;102296.31;5038493;28;45429;-69
2023/01/30 04:45:51;;;;;;;;;3.67;3.67;;;;;20.93;40.79;102298.09;5038624;28;46244;-69
2023/01/30 04:48:18;;;;;;;;;5.00;5.00;;;;;20.93;40.75;102295.47;5051322;28;45405;-69
2023/01/30 04:50:46;;;;;;;;;5.00;3.50;;;;;20.93;40.56;102296.31;5058858;28;45380;-69
2023/01/30 04:53:12;;;;;;;;;5.50;4.75;;;;;20.87;40.83;102282.81;5058950;28;45412;-69
2023/01/30 04:55:37;;;;;;;;;4.50;3.50;;;;;20.81;40.82;102270.94;5058614;28;45920;-69
2023/01/30 04:58:02;;;;;;;;;7.25;4.75;;;;;20.92;40.74;102286.69;5058477;28;45441;-69
2023/01/30 05:00:28;;;;;;;;;3.33;3.33;;;;;20.93;40.99;102290.16;5040770;28;45349;-70
2023/01/30 05:02:54;;;;;;;;;7.00;4.75;;;;;20.88;40.91;102284.44;5058817;28;45384;-69
2023/01/30 05:05:23;;;;;;;;;4.50;3.50;;;;;20.91;40.37;102290.31;5058472;28;46981;-69
2023/01/30 05:07:49;;;;;;;;;2.00;2.00;;;;;20.92;40.73;102285.88;5058124;28;45342;-69
2023/01/30 05:10:16;;;;;;;;;7.00;4.75;;;;;20.88;40.79;102282.66;5058576;28;45781;-69
2023/01/30 05:12:41;;;;;;;;;6.50;4.00;;;;;20.88;40.55;102277.34;5058172;28;45334;-69
2023/01/30 05:15:08;;;;;;;;;6.00;4.50;;;;;20.89;40.54;102279.03;5058264;28;45662;-69
2023/01/30 05:17:34;;;;;;;;;6.00;4.00;;;;;20.92;40.83;102288.50;5058508;28;45556;-69
2023/01/30 05:19:59;;;;;;;;;4.25;4.00;;;;;20.93;40.87;102284.88;5058527;28;45461;-69
2023/01/30 05:22:25;;;;;;;;;5.00;4.50;;;;;20.89;40.41;102283.50;5058356;28;45411;-70
2023/01/30 05:24:50;;;;;;;;;5.00;3.75;;;;;20.92;40.83;102289.31;5058074;28;47102;-70
2023/01/30 05:27:16;;;;;;;;;4.75;3.50;;;;;20.93;40.44;102282.22;5057949;28;45404;-69
2023/01/30 05:29:41;;;;;;;;;5.00;3.75;;;;;20.93;40.48;102288.38;5058431;28;45290;-69
2023/01/30 05:32:11;;;;;;;;;4.25;4.25;;;;;20.92;40.62;102286.69;5057117;28;45385;-69
2023/01/30 05:34:36;;;;;;;;;4.25;4.25;;;;;20.91;40.35;102285.03;5040070;28;48769;-69
2023/01/30 05:37:02;;;;;;;;;5.25;5.00;;;;;20.87;40.94;102273.03;5057921;28;45344;-69
2023/01/30 05:39:27;;;;;;;;;3.75;3.75;;;;;20.91;40.51;102279.75;5058369;28;45399;-71
2023/01/30 05:41:52;;;;;;;;;2.25;2.25;;;;;20.91;40.61;102282.38;5057712;28;45540;-70
2023/01/30 05:44:17;;;;;;;;;6.25;5.50;;;;;20.90;40.50;102272.75;5057808;28;48197;-69
2023/01/30 05:46:43;;;;;;;;;6.50;5.00;;;;;20.91;40.78;102281.53;5057473;28;47820;-69
2023/01/30 05:49:08;;;;;;;;;3.00;3.00;;;;;20.91;40.92;102281.53;5057977;28;45289;-69
2023/01/30 05:51:33;;;;;;;;;8.00;4.00;;;;;20.90;40.99;102285.16;5058114;28;45297;-69
2023/01/30 05:53:59;;;;;;;;;5.50;2.50;;;;;20.90;40.89;102279.84;5057628;28;47311;-69
2023/01/30 05:56:24;;;;;;;;;5.00;3.75;;;;;20.90;40.82;102285.16;5057757;28;45379;-70
2023/01/30 05:58:54;;;;;;;;;3.00;3.00;;;;;20.91;40.58;102294.75;5039858;28;45521;-70
2023/01/30 06:01:20;;;;;;;;;4.50;4.00;;;;;20.89;40.64;102286.13;5057966;28;45438;-70
2023/01/30 06:03:46;;;;;;;;;3.50;3.00;;;;;20.89;40.67;102292.28;5057425;28;47416;-70
2023/01/30 06:06:12;;;;;;;;;2.50;2.50;;;;;20.89;41.06;102288.78;5057329;28;45523;-69
2023/01/30 06:08:38;;;;;;;;;6.00;4.25;;;;;20.83;40.44;102283.06;5057836;28;45448;-69
2023/01/30 06:11:07;;;;;;;;;4.00;4.00;;;;;20.87;40.54;102290.72;5057495;28;45394;-69
2023/01/30 06:13:32;;;;;;;;;5.00;5.00;;;;;20.86;40.86;102300.47;5057272;28;46251;-69
2023/01/30 06:15:58;;;;;;;;;4.50;4.50;;;;;20.86;40.81;102295.19;5057313;28;45282;-70
2023/01/30 06:18:23;;;;;;;;;3.00;3.00;;;;;20.81;40.74;102298.25;5057490;28;45404;-69
2023/01/30 06:20:50;;;;;;;;;6.00;4.00;;;;;20.87;40.47;102303.97;5057559;28;45197;-69
2023/01/30 06:23:16;;;;;;;;;5.00;4.67;;;;;20.86;40.42;102300.47;5057154;28;47060;-69
2023/01/30 06:25:43;;;;;;;;;5.00;4.00;;;;;20.86;40.50;102297.84;5056811;28;45937;-69
2023/01/30 06:28:09;;;;;;;;;5.00;3.75;;;;;20.84;40.55;102303.25;5057536;28;45291;-70
2023/01/30 06:30:34;;;;;;;;;4.00;3.00;;;;;20.82;40.74;102291.13;5057276;28;45457;-69
2023/01/30 06:32:59;;;;;;;;;4.25;2.00;;;;;20.84;40.50;102299.78;5057122;28;46357;-69
2023/01/30 06:35:24;;;;;;;;;2.25;2.25;;;;;20.78;40.54;102287.09;5057154;28;45364;-69
2023/01/30 06:37:50;;;;;;;;;3.50;2.00;;;;;20.77;40.72;102293.34;5057129;28;45433;-69
2023/01/30 06:40:15;;;;;;;;;6.00;5.50;;;;;20.75;41.01;102298.78;5033066;28;45504;-68
2023/01/30 06:42:45;;;;;;;;;4.00;4.00;;;;;20.85;41.27;102310.22;5056279;28;46089;-70
2023/01/30 06:45:12;;;;;;;;;1.00;0.00;;;;;20.77;41.36;102302.13;5055652;28;45330;-70
2023/01/30 06:47:50;;;;;;;;;7.00;3.00;;;;;20.86;41.31;102319.00;5036411;28;45405;-69
2023/01/30 06:50:17;;;;;;;;;5.00;4.00;;;;;20.88;41.33;102311.75;5036759;28;45651;-67
2023/01/30 06:52:45;;;;;;;;;2.67;2.00;;;;;20.89;41.50;102313.44;5036531;28;46223;-67
2023/01/30 06:55:13;;;;;;;;;3.25;2.00;;;;;20.91;41.22;102321.22;5029602;28;45475;-67
2023/01/30 06:57:39;;;;;;;;;4.00;4.00;;;;;20.91;41.41;102314.13;5023432;28;45625;-70
2023/01/30 07:00:06;;;;;;;;;2.33;2.33;;;;;20.92;41.14;102320.25;5024234;28;45401;-69
2023/01/30 07:02:34;;;;;;;;;3.50;2.75;;;;;20.88;41.01;102316.19;5024902;28;46349;-68
2023/01/30 07:05:00;;;;;;;;;4.25;2.00;;;;;20.93;41.03;102328.06;5021251;28;45385;-72
2023/01/30 07:07:26;;;;;;;;;5.50;2.00;;;;;20.94;41.20;102328.91;5015904;28;45374;-69
2023/01/30 07:09:51;;;;;;;;;4.67;2.67;;;;;20.91;41.05;102314.13;5016640;28;45330;-70
2023/01/30 07:12:16;;;;;;;;;4.00;3.00;;;;;20.94;41.19;102318.31;5016518;28;49885;-74
2023/01/30 07:14:42;;;;;;;;;3.75;3.00;;;;;20.93;41.12;102320.13;5030090;28;45428;-70
2023/01/30 07:17:07;;;;;;;;;2.67;2.00;;;;;20.88;41.30;102317.03;5043238;28;45360;-71
2023/01/30 07:19:32;;;;;;;;;3.75;3.75;;;;;20.93;41.28;102335.16;5052284;28;45474;-71
2023/01/30 07:21:58;;;;;;;;;5.25;3.75;;;;;20.94;41.03;102336.84;5034997;28;47863;-69
2023/01/30 07:24:23;;;;;;;;;4.25;4.25;;;;;20.89;40.33;102325.81;5035952;28;45435;-69
2023/01/30 07:26:48;;;;;;;;;6.00;3.75;;;;;20.84;40.67;102337.63;5036428;28;45450;-70
2023/01/30 07:29:13;;;;;;;;;4.00;2.00;;;;;20.84;41.17;102329.69;5036138;28;45370;-67
2023/01/30 07:31:39;;;;;;;;;3.00;3.00;;;;;20.82;41.59;102331.66;5036103;28;45293;-68
2023/01/30 07:34:04;;;;;;;;;3.50;3.50;;;;;20.87;41.67;102330.41;5035188;28;45387;-67
2023/01/30 07:36:32;;;;;;;;;3.75;3.25;;;;;20.87;41.60;102330.41;5036064;28;45328;-69
2023/01/30 07:38:58;;;;;;;;;3.50;3.50;;;;;20.86;41.21;102326.94;5036130;28;45405;-69
2023/01/30 07:41:23;;;;;;;;;3.50;3.00;;;;;20.88;41.27;102329.44;5036006;28;46286;-69
2023/01/30 07:43:48;;;;;;;;;2.00;2.00;;;;;20.88;41.47;102326.78;5036381;28;45451;-69
2023/01/30 07:46:14;;;;;;;;;2.00;2.00;;;;;20.85;41.21;102319.97;5043592;28;45441;-69
2023/01/30 07:48:39;;;;;;;;;4.25;2.00;;;;;20.80;41.23;102306.28;5055890;28;45408;-69
2023/01/30 07:51:05;;;;;;;;;4.33;2.00;;;;;20.88;41.39;102327.63;5037526;28;48135;-69
2023/01/30 07:53:30;;;;;;;;;3.50;3.50;;;;;20.88;41.65;102330.28;5055776;28;45450;-69
2023/01/30 07:55:55;;;;;;;;;4.00;2.33;;;;;20.88;41.51;102327.63;5055341;28;45364;-68
2023/01/30 07:58:21;;;;;;;;;2.50;2.50;;;;;20.88;41.41;102319.69;5055779;28;45559;-69
2023/01/30 08:00:46;;;;;;;;;2.33;2.33;;;;;20.89;41.21;102333.75;5055790;28;46161;-69
2023/01/30 08:03:13;;;;;;;;;3.00;3.00;;;;;20.89;41.50;102323.19;5055717;28;45396;-69
2023/01/30 08:05:38;;;;;;;;;3.00;2.50;;;;;20.88;41.46;102324.13;5055524;28;45486;-69
2023/01/30 08:08:04;;;;;;;;;5.00;3.75;;;;;20.85;41.22;102327.88;5055648;28;45476;-69
2023/01/30 08:10:29;;;;;;;;;3.50;2.75;;;;;20.88;41.31;102335.56;5055903;28;46142;-69
2023/01/30 08:12:54;;;;;;;;;5.25;2.00;;;;;20.89;41.42;102336.41;5055734;28;45503;-69
2023/01/30 08:15:20;;;;;;;;;3.00;3.00;;;;;20.89;41.33;102341.69;5055823;28;45266;-69
2023/01/30 08:17:55;;;;;;;;;2.00;2.00;;;;;20.89;41.09;102339.88;5055911;28;45401;-69
2023/01/30 08:20:21;;;;;;;;;3.00;3.00;;;;;20.83;41.03;102338.63;5055275;28;46170;-69
2023/01/30 08:22:46;;;;;;;;;3.75;2.75;;;;;20.90;41.15;102349.47;5055701;28;45356;-68
2023/01/30 08:25:11;;;;;;;;;3.00;2.00;;;;;20.78;40.79;102340.84;5055559;28;45318;-69
2023/01/30 08:27:37;;;;;;;;;3.00;2.00;;;;;20.91;41.33;102369.69;5055580;28;45441;-69
2023/01/30 08:30:02;;;;;;;;;4.00;3.00;;;;;20.89;41.16;102362.84;5037421;28;47200;-69
2023/01/30 08:32:28;;;;;;;;;3.67;2.00;;;;;20.91;40.91;102376.78;5055534;28;45423;-69
2023/01/30 08:34:53;;;;;;;;;2.00;2.00;;;;;20.92;40.88;102391.69;5055508;28;45330;-68
2023/01/30 08:37:18;;;;;;;;;3.00;2.67;;;;;20.91;41.02;102384.72;5055588;28;45435;-69
2023/01/30 08:39:44;;;;;;;;;4.75;2.75;;;;;20.92;40.99;102387.22;5055288;28;46160;-69
2023/01/30 08:42:09;;;;;;;;;3.00;3.00;;;;;20.91;40.99;102390.00;5055337;28;45348;-69
2023/01/30 08:44:34;;;;;;;;;3.00;2.00;;;;;20.90;40.67;102385.69;5055709;28;45494;-69
2023/01/30 08:46:59;;;;;;;;;2.67;2.67;;;;;20.92;40.90;102402.28;5055196;28;45449;-69
2023/01/30 08:49:25;;;;;;;;;3.00;3.00;;;;;20.92;41.01;102410.22;5055031;28;46080;-69
2023/01/30 08:51:50;;;;;;;;;1.67;1.67;;;;;20.92;41.30;102410.22;5055484;28;45490;-69
2023/01/30 08:54:15;;;;;;;;;3.00;1.33;;;;;20.91;41.16;102419.97;5055501;28;45348;-69
2023/01/30 08:56:41;;;;;;;;;2.00;2.00;;;;;20.91;40.98;102419.97;5055281;28;45370;-69
2023/01/30 08:59:06;;;;;;;;;1.75;1.75;;;;;20.85;41.25;102413.38;5055327;28;45419;-69
2023/01/30 09:01:32;;;;;;;;;3.00;2.00;;;;;20.91;41.05;102421.75;5055219;28;45402;-69
2023/01/30 09:03:57;;;;;;;;;4.00;3.00;;;;;20.84;40.93;102409.06;5054869;28;45396;-70
2023/01/30 09:06:23;;;;;;;;;1.33;1.33;;;;;20.90;41.04;102420.91;5055773;28;45444;-69
2023/01/30 09:08:48;;;;;;;;;2.00;2.00;;;;;20.89;40.92;102411.31;5058637;28;46115;-68
2023/01/30 09:11:13;;;;;;;;;4.00;2.67;;;;;20.90;41.01;102412.97;5058417;28;45374;-68
2023/01/30 09:13:42;;;;;;;;;2.33;2.00;;;;;20.89;40.83;102413.97;5058530;28;45435;-69
2023/01/30 09:16:09;;;;;;;;;1.00;1.00;;;;;20.81;41.11;102393.47;5058684;28;45345;-68
2023/01/30 09:18:38;;;;;;;;;2.00;2.00;;;;;20.84;41.09;102403.75;5058032;28;47243;-68
2023/01/30 09:21:04;;;;;;;;;2.00;2.00;;;;;20.83;41.18;102407.41;5058447;28;45426;-68
2023/01/30 09:23:30;;;;;;;;;2.75;2.75;;;;;20.89;41.32;102418.41;5058288;28;45308;-68
2023/01/30 09:25:55;;;;;;;;;2.00;2.00;;;;;20.81;40.97;102411.16;5058625;28;45745;-69
2023/01/30 09:28:20;;;;;;;;;2.33;1.67;;;;;20.88;40.95;102428.16;5058197;28;46046;-68
2023/01/30 09:30:46;;;;;;;;;3.00;2.00;;;;;20.87;41.37;102421.19;5058236;28;45316;-68
2023/01/30 09:33:15;;;;;;;;;3.33;1.67;;;;;20.89;40.92;102429.00;5058168;28;45408;-68
2023/01/30 09:35:40;;;;;;;;;2.00;2.00;;;;;20.89;40.68;102434.28;5058523;28;45510;-69
2023/01/30 09:38:06;;;;;;;;;3.00;2.00;;;;;20.72;40.90;102404.84;5057857;28;45403;-68
2023/01/30 09:40:31;;;;;;;;;2.00;2.00;;;;;20.75;40.78;102412.50;5058194;28;45371;-69
2023/01/30 09:43:10;;;;;;;;;2.33;2.33;;;;;20.88;40.83;102433.44;5058203;28;45502;-68
2023/01/30 09:45:44;;;;;;;;;3.00;2.33;;;;;20.89;41.54;102431.66;5058014;28;45579;-68
2023/01/30 09:48:14;;;;;;;;;2.00;2.00;;;;;20.89;41.06;102429.00;5057231;28;47050;-68
2023/01/30 09:51:01;;;;;;;;;2.00;2.00;;;;;20.87;40.71;102429.13;5058045;28;45486;-68
2023/01/30 09:53:40;;;;;;;;;2.00;1.67;;;;;20.80;41.12;102420.88;5057066;28;45403;-68
2023/01/30 09:56:06;;;;;;;;;3.67;3.00;;;;;20.88;41.23;102422.03;5057996;28;45435;-69
2023/01/30 09:58:40;;;;;;;;;3.67;2.00;;;;;20.88;41.30;102412.28;5057569;28;46264;-68
2023/01/30 10:01:15;;;;;;;;;2.67;2.00;;;;;20.82;40.91;102397.78;5057557;28;45368;-68
2023/01/30 10:03:56;;;;;;;;;3.00;2.00;;;;;20.89;41.21;102410.47;5057731;28;45340;-69
2023/01/30 10:06:22;;;;;;;;;2.00;2.00;;;;;20.79;40.78;102397.22;5057590;28;45467;-69
2023/01/30 10:08:53;;;;;;;;;2.67;2.67;;;;;20.88;40.94;102422.03;5057504;28;46069;-69
2023/01/30 10:11:49;;;;;;;;;4.25;2.75;;;;;20.88;41.08;102429.97;5057650;28;45295;-69
2023/01/30 10:14:23;;;;;;;;;2.33;2.33;;;;;20.88;40.82;102436.09;5057717;28;45408;-69
2023/01/30 10:17:22;;;;;;;;;1.33;1.33;;;;;20.89;40.88;102444.88;5057262;28;45229;-69
2023/01/30 10:20:12;;;;;;;;;0.00;0.00;;;;;20.90;40.91;102451.81;5056717;28;46251;-69
2023/01/30 10:23:01;;;;;;;;;3.00;3.00;;;;;20.88;40.78;102445.84;5057531;28;45325;-69
2023/01/30 10:25:43;;;;;;;;;1.00;1.00;;;;;20.84;40.69;102435.50;5057556;28;45297;-69
2023/01/30 10:28:23;;;;;;;;;3.33;2.67;;;;;20.81;40.53;102429.66;5057186;28;45437;-69
2023/01/30 10:30:54;;;;;;;;;2.00;2.00;;;;;20.90;40.73;102447.38;5056809;28;47180;-68
2023/01/30 10:33:44;;;;;;;;;2.00;2.00;;;;;20.90;40.94;102451.81;5057474;28;45508;-69
2023/01/30 10:36:21;;;;;;;;;2.00;2.00;;;;;20.88;40.84;102449.31;5057338;28;45380;-69
2023/01/30 10:38:50;;;;;;;;;1.00;1.00;;;;;20.90;40.60;102459.75;5057023;28;45467;-68
2023/01/30 10:41:24;;;;;;;;;1.67;1.67;;;;;20.88;40.85;102457.25;5057181;28;47370;-69
2023/01/30 10:43:58;;;;;;;;;2.67;2.00;;;;;20.89;40.80;102455.47;5056917;28;45464;-69
2023/01/30 10:46:50;;;;;;;;;4.00;2.50;;;;;20.87;40.86;102449.47;5056482;28;45401;-69
2023/01/30 10:49:37;;;;;;;;;2.00;2.00;;;;;20.88;40.86;102464.34;5036876;28;45294;-69
2023/01/30 10:52:23;;;;;;;;;2.00;2.00;;;;;20.88;40.88;102459.91;5036499;28;46286;-69
2023/01/30 10:55:26;;;;;;;;;2.00;2.00;;;;;20.88;40.99;102461.72;5036626;28;45333;-69
2023/01/30 10:57:57;;;;;;;;;2.00;2.00;;;;;20.87;40.77;102460.06;5036924;28;45400;-69
2023/01/30 11:00:26;;;;;;;;;3.00;3.00;;;;;20.87;40.49;102449.47;5036361;28;45371;-69
2023/01/30 11:03:20;;;;;;;;;2.00;2.00;;;;;20.87;40.98;102447.63;5036340;28;45393;-69
2023/01/30 11:05:49;;;;;;;;;2.00;2.00;;;;;20.87;40.95;102450.28;5036716;28;45298;-69
2023/01/30 11:08:18;;;;;;;;;3.00;3.00;;;;;20.87;40.65;102444.19;5036416;28;45453;-68
2023/01/30 11:10:43;;;;;;;;;2.75;2.75;;;;;20.86;40.87;102445.97;5036535;28;45412;-69
2023/01/30 11:13:21;;;;;;;;;3.25;1.50;;;;;20.87;41.11;102441.53;5036385;28;46442;-69
2023/01/30 11:15:51;;;;;;;;;4.00;2.00;;;;;20.87;40.78;102445.00;5036065;28;45421;-69
2023/01/30 11:18:19;;;;;;;;;3.00;3.00;;;;;20.86;41.01;102440.69;5018641;28;45449;-69
2023/01/30 11:20:53;;;;;;;;;2.33;2.33;;;;;20.87;40.72;102436.25;5036618;28;45553;-68
2023/01/30 11:23:26;;;;;;;;;2.00;2.00;;;;;20.87;41.11;102439.69;5036192;28;46405;-67
2023/01/30 11:25:55;;;;;;;;;1.75;1.75;;;;;20.84;41.28;102429.41;5036355;28;45314;-69
2023/01/30 11:28:22;;;;;;;;;1.67;1.67;;;;;20.81;40.84;102424.38;5036024;28;45341;-68
2023/01/30 11:30:53;;;;;;;;;2.00;2.00;;;;;20.84;40.66;102430.22;5035088;28;45424;-68
2023/01/30 11:33:21;;;;;;;;;2.00;1.33;;;;;20.84;40.83;102430.22;5035966;28;46081;-69
2023/01/30 11:36:02;;;;;;;;;2.25;2.25;;;;;20.84;41.02;102432.88;5036007;28;45356;-69
2023/01/30 11:38:29;;;;;;;;;3.33;2.67;;;;;20.87;41.09;102430.94;5036446;28;45474;-69
2023/01/30 11:41:09;;;;;;;;;2.67;2.67;;;;;20.85;40.77;102429.25;5036317;28;45344;-69